Tiempo atmosférico en la estación meteorológica de Villafranca De Los Barros, Badajoz (430 m.)



Fecha
DESCASC
Temp. máxima en grados centígrados (hora)
DESCASC
Temp. mínima en grados centígrados (hora)
DESCASC
Temp. media en grados centígrados
DESCASC
Racha de viento máxima en m/sg (hora)
DESCASC
Velocidad máxima media en intervalos de 10 minutos(hora)
DESCASC
Precipitaciones diarias en mm
DESCASC
Precipitaciones de 00:00 a 06:00 en mm
DESCASC
Precipitaciones de 06:00 a 12:00 en mm
DESCASC
Precipitaciones de 12:00 a 18:00 en mm
DESCASC
Precipitaciones de 18:00 a 24:00 en mm
DESCASC
16-06-2019 31.9 (18:10) 7.9 (07:00) 19.9 11.11 (15:50) 5.83 (18:50) 0 0 0 0 0
15-06-2019 25.8 (18:30) 7.9 (07:10) 16.8 8.33 (18:40) 4.17 (16:50) 0 0 0 0 0
14-06-2019 21.4 (17:10) 5.5 (07:20) 13.4 11.94 (15:40) 6.67 (15:40) 0 0 0 0 0
13-06-2019 27.9 (17:40) 6.7 (00:00) 17.3 11.11 (18:10) 7.22 (18:50) 0 0 0 0 0
12-06-2019 28.3 (16:50) 6.2 (00:00) 17.2 12.22 (17:50) 5.56 (21:30) 0 0 0 0 0
11-06-2019 25.2 (18:40) 10.9 (00:00) 18.1 11.67 (14:10) 7.22 (15:50) 0 0 0 0 0
10-06-2019 26.7 (18:40) 11.4 (00:00) 19.1 10.83 (23:30) 6.94 (23:30) 0 0 0 0 0
09-06-2019 26.1 (17:40) 7.7 (00:00) 16.9 10.56 (20:50) 6.67 (20:50) 0 0 0 0 0
08-06-2019 29.2 (17:40) 7.1 (00:00) 18.2 11.94 (17:30) 5.83 (23:59) 0 0 0 0 0
07-06-2019 22.3 (18:50) 9.6 (00:00) 15.9 10.83 (11:50) 7.5 (01:10) 0 0 0 0 0
06-06-2019 24.2 (17:10) 8.3 (00:00) 16.3 11.94 (15:10) 7.78 (20:00) 0 0 0 0 0
05-06-2019 21.6 (18:00) 10.3 (00:00) 16 12.78 (14:20) 7.78 (01:20) 0 0 0 0 0
04-06-2019 25.6 (15:40) 15.2 (00:00) 20.4 13.61 (19:40) 9.17 (19:40) 0 0 0 0 0
03-06-2019 34.4 (16:40) 13.9 (00:00) 24.2 10.56 (19:40) 6.39 (20:40) 0 0 0 0 0
02-06-2019 35.4 (18:10) 17.5 (00:00) 26.5 10.83 (21:30) 6.94 (21:30) 0 0 0 0 0
01-06-2019 35 (17:50) 16.2 (00:00) 25.6 8.61 (19:20) 5 (19:30) 0 0 0 0 0
31-05-2019 34.1 (17:50) 11.6 (00:00) 22.8 10.28 (13:10) 5 (16:10) 0 0 0 0 0
30-05-2019 33 (18:50) 13.4 (00:00) 23.2 9.17 (12:40) 5 (12:50) 0 0 0 0 0
29-05-2019 30.6 (18:40) 12.4 (00:00) 21.5 10.28 (14:50) 6.39 (10:30) 0 0 0 0 0
28-05-2019 32.1 (18:00) 15.3 (00:00) 23.7 10.56 (15:40) 5.83 (20:10) 0 0 0 0 0
27-05-2019 32.5 (17:20) 12 (00:00) 22.3 11.11 (17:20) 6.94 (21:20) 0 0 0 0 0
26-05-2019 30.5 (18:00) 8.2 (00:00) 19.3 10.56 (18:40) 5.28 (19:10) 0 0 0 0 0
25-05-2019 27.4 (18:20) 11.9 (00:00) 19.6 10.83 (15:10) 5.83 (11:50) 0 0 0 0 0
24-05-2019 28.3 (17:40) 12.1 (00:00) 20.2 10 (16:10) 6.94 (00:20) 0 0 0 0 0
23-05-2019 29.5 (16:30) 11.4 (00:00) 20.4 11.11 (23:40) 7.5 (23:40) 0 0 0 0 0
22-05-2019 30.4 (17:30) 9.3 (00:00) 19.8 12.22 (17:30) 4.44 (01:40) 0 0 0 0 0
21-05-2019 25.8 (17:40) 9.2 (07:30) 17.5 9.44 (15:20) 5 (03:00) 0 0 0 0 0

Gráficas

Temp. máximas Temp. mínimas Temp. medias Precipitaciones Rachas de viento máximas Velocidades máximas media en intervalos de 10 minutos

Datos horarios

Fecha y hora oficial Temperatura (ºC) Velocidad del viento (km/h) Dirección del viento Racha (km/h) Dirección de racha Precipitación (mm) Presión (hPa) Tendencia (hPa) Humedad (%)
2019-06-19 23:00:00 21.2 8 Noroeste 20 Noroeste 0 -- -- 57
2019-06-19 22:00:00 22.5 13 Noroeste 24 Noroeste 0 -- -- 53
2019-06-19 21:00:00 24.1 17 Noroeste 25 Noroeste 0 -- -- 49
2019-06-19 20:00:00 25.4 16 Noroeste 29 Oeste 0 -- -- 44
2019-06-19 19:00:00 25.3 10 Noroeste 26 Oeste 0 -- -- 43
2019-06-19 18:00:00 26.1 11 Noroeste 24 Noroeste 0 -- -- 42
2019-06-19 17:00:00 25.6 12 Noroeste 37 Oeste 0 -- -- 45
2019-06-19 16:00:00 24.9 10 Noroeste 24 Noroeste 0 -- -- 47
2019-06-19 15:00:00 24 9 Noroeste 23 Oeste 0 -- -- 46
2019-06-19 14:00:00 23.3 9 Oeste 20 Sudoeste 0 -- -- 50
2019-06-19 13:00:00 23.1 9 Sudoeste 17 Oeste 0 -- -- 49
2019-06-19 12:00:00 21.9 11 Sudoeste 17 Sudoeste 0 -- -- 52
2019-06-19 11:00:00 20.3 10 Sudoeste 19 Sudoeste 0 -- -- 62
2019-06-19 10:00:00 19.2 8 Oeste 15 Sudoeste 0 -- -- 68
2019-06-19 09:00:00 19 10 Sudoeste 17 Sudoeste 0 -- -- 69
2019-06-19 08:00:00 14.3 8 Sur 12 Sur 0 -- -- 82
2019-06-19 07:00:00 12.9 6 Sudoeste 10 Sudoeste 0 -- -- 87
2019-06-19 06:00:00 13.4 4 Oeste 10 Sudoeste 0 -- -- 85
2019-06-19 05:00:00 14.1 4 Este 9 Sudoeste 0 -- -- 80
2019-06-19 04:00:00 15.7 6 Sudoeste 10 Sudoeste 0 -- -- 74
2019-06-19 03:00:00 17 2 Noroeste 15 Oeste 0 -- -- 68
2019-06-19 02:00:00 18.6 10 Oeste 21 Sudoeste 0 -- -- 64
2019-06-19 01:00:00 19.8 11 Sudoeste 22 Sudoeste 0 -- -- 64
2019-06-19 00:00:00 20.8 13 Sudoeste 21 Sudoeste 0 -- -- 58
2019-06-18 23:00:00 21.5 14 Oeste 28 Sudoeste 0 -- -- 55
2019-06-18 22:00:00 22.7 12 Sudoeste 23 Sudoeste 0 -- -- 50
2019-06-18 21:00:00 24.6 15 Sudoeste 30 Sudoeste 0 -- -- 46
2019-06-18 20:00:00 25.4 19 Sudoeste 38 Sudoeste 0 -- -- 43
2019-06-18 19:00:00 25.8 22 Sudoeste 36 Sudoeste 0 -- -- 45
2019-06-18 18:00:00 26.7 22 Sudoeste 41 Oeste 0 -- -- 44
2019-06-18 17:00:00 27 21 Sudoeste 39 Sudoeste 0 -- -- 39
2019-06-18 16:00:00 27.5 23 Sudoeste 40 Sudoeste 0 -- -- 39
2019-06-18 15:00:00 27 22 Sudoeste 35 Oeste 0 -- -- 40
2019-06-18 14:00:00 26.4 19 Sudoeste 34 Sudoeste 0 -- -- 42
2019-06-18 13:00:00 24.6 21 Sudoeste 32 Sudoeste 0 -- -- 41
2019-06-18 12:00:00 22.9 20 Sudoeste 30 Sudoeste 0 -- -- 37
2019-06-18 11:00:00 21.7 17 Sudoeste 27 Sudoeste 0 -- -- 29
2019-06-18 10:00:00 19.9 12 Sur 17 Sur 0 -- -- 35
2019-06-18 09:00:00 16.6 6 Este 12 Sudeste 0 -- -- 52
2019-06-18 08:00:00 10.5 3 Sudeste 5 Sur 0 -- -- 51
2019-06-18 07:00:00 9.2 2 Sur 9 Sudeste 0 -- -- 51
2019-06-18 06:00:00 10.4 5 Sudeste 9 Sur 0 -- -- 43
2019-06-18 05:00:00 12.8 4 Sudeste 6 Sudeste 0 -- -- 37
2019-06-18 04:00:00 13.8 0 Calma 8 Este 0 -- -- 32
2019-06-18 03:00:00 16.6 2 Sur 9 Sudoeste 0 -- -- 28
2019-06-18 02:00:00 20.6 9 Sudoeste 17 Sudoeste 0 -- -- 23
2019-06-18 01:00:00 21.7 9 Sudoeste 16 Sudoeste 0 -- -- 23
2019-06-18 00:00:00 23.1 8 Sudoeste 23 Sudoeste 0 -- -- 24
2019-06-17 23:00:00 24.6 15 Sudoeste 27 Sudoeste 0 -- -- 22
2019-06-17 22:00:00 26 15 Sudoeste 29 Sudoeste 0 -- -- 23
2019-06-17 21:00:00 28.5 19 Sudoeste 31 Sudoeste 0 -- -- 19
2019-06-17 20:00:00 30.3 17 Sudoeste 28 Sudoeste 0 -- -- 22
2019-06-17 19:00:00 30.9 18 Sudoeste 37 Sudoeste 0 -- -- 17
2019-06-17 18:00:00 31.4 17 Sudoeste 29 Sur 0 -- -- 16
2019-06-17 17:00:00 31.1 19 Sur 36 Sur 0 -- -- 15
2019-06-17 16:00:00 31 16 Sudoeste 36 Sur 0 -- -- 16
2019-06-17 15:00:00 30.4 16 Sur 31 Sudoeste 0 -- -- 16
2019-06-17 14:00:00 29.2 18 Sudeste 32 Sur 0 -- -- 18
2019-06-17 13:00:00 27.6 14 Sur 27 Sur 0 -- -- 21
2019-06-17 12:00:00 25.5 12 Sur 26 Sur 0 -- -- 23
2019-06-17 11:00:00 23.6 13 Sur 26 Sur 0 -- -- 32
2019-06-17 10:00:00 22 16 Sur 28 Sur 0 -- -- 37
2019-06-17 09:00:00 18.6 9 Sudeste 13 Sudeste 0 -- -- 45
2019-06-17 08:00:00 12.3 4 Sudeste 9 Sudeste 0 -- -- 62
2019-06-17 07:00:00 10.9 2 Sur 10 Sur 0 -- -- 60
2019-06-17 06:00:00 12.3 5 Sur 8 Sur 0 -- -- 63
2019-06-17 05:00:00 13.8 6 Sur 10 Sur 0 -- -- 57
2019-06-17 04:00:00 15 8 Sur 11 Sur 0 -- -- 51
2019-06-17 03:00:00 15.7 8 Sur 11 Sudoeste 0 -- -- 42
2019-06-17 02:00:00 19.6 6 Sudoeste 23 Sudoeste 0 -- -- 38
2019-06-17 01:00:00 20.2 12 Oeste 23 Oeste 0 -- -- 35
2019-06-17 00:00:00 21.4 9 Sudoeste 17 Sudoeste 0 -- -- 30
2019-06-16 23:00:00 22.6 10 Sudoeste 15 Sudoeste 0 -- -- 30
2019-06-16 22:00:00 25.8 8 Oeste 22 Noroeste 0 -- -- 26
2019-06-16 21:00:00 28 15 Noroeste 25 Noroeste 0 -- -- 24
2019-06-16 20:00:00 29.3 16 Noroeste 28 Noroeste 0 -- -- 24
2019-06-16 19:00:00 30.1 14 Norte 34 Noroeste 0 -- -- 23
2019-06-16 18:00:00 31.6 8 Sudoeste 23 Sudoeste 0 -- -- 17
2019-06-16 17:00:00 31.6 13 Sudoeste 30 Este 0 -- -- 18
2019-06-16 16:00:00 30 12 Oeste 40 Sudoeste 0 -- -- 23
2019-06-16 15:00:00 29.7 12 Sur 24 Sur 0 -- -- 20
2019-06-16 14:00:00 28.1 5 Este 19 Sudeste 0 -- -- 25
2019-06-16 13:00:00 26.5 9 Este 17 Sudeste 0 -- -- 27
2019-06-16 12:00:00 23.9 5 Este 10 Nordeste 0 -- -- 36
2019-06-16 11:00:00 20.7 3 Noroeste 8 Norte 0 -- -- 45
2019-06-16 10:00:00 18.8 2 Norte 6 Norte 0 -- -- 52
2019-06-16 09:00:00 16.2 0 Calma 5 Sur 0 -- -- 59
2019-06-16 08:00:00 10.3 2 Sur 5 Sur 0 -- -- 63
2019-06-16 07:00:00 7.9 3 Sudeste 5 Sur 0 -- -- 59
2019-06-16 06:00:00 8.6 2 Sur 4 Sur 0 -- -- 57
2019-06-16 05:00:00 10.4 2 Sur 5 Oeste 0 -- -- 59
2019-06-16 04:00:00 13 2 Sudoeste 11 Oeste 0 -- -- 57
2019-06-16 03:00:00 15.6 6 Oeste 16 Oeste 0 -- -- 50
2019-06-16 02:00:00 12.3 3 Noroeste 14 Oeste 0 -- -- 40
2019-06-16 01:00:00 12.8 5 Sur 8 Sur 0 -- -- 34
2019-06-16 00:00:00 14.1 4 Sur 6 Sur 0 -- -- 33
2019-06-15 23:00:00 16.8 0 Calma 4 Norte 0 -- -- 30
2019-06-15 22:00:00 21.6 5 Norte 17 Noroeste 0 -- -- 28
2019-06-15 21:00:00 23.9 11 Noroeste 19 Noroeste 0 -- -- 26
2019-06-15 20:00:00 24.9 9 Norte 23 Noroeste 0 -- -- 27
2019-06-15 19:00:00 25.2 11 Oeste 30 Norte 0 -- -- 25
2019-06-15 18:00:00 25 6 Norte 21 Noroeste 0 -- -- 27
2019-06-15 17:00:00 24.3 9 Oeste 27 Noroeste 0 -- -- 27
2019-06-15 16:00:00 23.9 5 Oeste 21 Noroeste 0 -- -- 30
2019-06-15 15:00:00 22.5 8 Noroeste 20 Noroeste 0 -- -- 34
2019-06-15 14:00:00 21.1 9 Oeste 24 Oeste 0 -- -- 37
2019-06-15 13:00:00 20.3 10 Noroeste 26 Oeste 0 -- -- 41
2019-06-15 12:00:00 18.6 8 Norte 17 Noroeste 0 -- -- 46
2019-06-15 11:00:00 16.9 8 Noroeste 15 Oeste 0 -- -- 51
2019-06-15 10:00:00 15.3 3 Noroeste 14 Noroeste 0 -- -- 60
2019-06-15 09:00:00 13.9 5 Oeste 9 Sudoeste 0 -- -- 68
2019-06-15 08:00:00 9.8 4 Sur 6 Sur 0 -- -- 75
2019-06-15 07:00:00 8.6 0 Calma 12 Oeste 0 -- -- 75
2019-06-15 06:00:00 10.2 9 Oeste 13 Oeste 0 -- -- 74
2019-06-15 05:00:00 10.9 8 Oeste 12 Oeste 0 -- -- 72
2019-06-15 04:00:00 11.6 3 Oeste 11 Noroeste 0 -- -- 65
2019-06-15 03:00:00 13 8 Oeste 17 Noroeste 0 -- -- 60
2019-06-15 02:00:00 12.9 9 Oeste 13 Oeste 0 -- -- 59
2019-06-15 01:00:00 14.6 8 Oeste 18 Noroeste 0 -- -- 54
2019-06-15 00:00:00 15.3 7 Noroeste 22 Oeste 0 -- -- 52
2019-06-14 23:00:00 16.7 14 Noroeste 24 Oeste 0 -- -- 49
2019-06-14 22:00:00 17.8 14 Oeste 30 Noroeste 0 -- -- 43
2019-06-14 21:00:00 19 16 Oeste 31 Noroeste 0 -- -- 39
2019-06-14 20:00:00 19.8 19 Oeste 33 Oeste 0 -- -- 38
2019-06-14 19:00:00 20.5 18 Oeste 38 Oeste 0 -- -- 36
2019-06-14 18:00:00 20.9 21 Oeste 38 Oeste 0 -- -- 35
2019-06-14 17:00:00 20.9 18 Oeste 40 Sudoeste 0 -- -- 35
2019-06-14 16:00:00 20.8 20 Noroeste 43 Oeste 0 -- -- 37
2019-06-14 15:00:00 20 18 Oeste 38 Oeste 0 -- -- 37
2019-06-14 14:00:00 19.7 21 Oeste 38 Oeste 0 -- -- 37
2019-06-14 13:00:00 19 20 Oeste 36 Oeste 0 -- -- 40
2019-06-14 12:00:00 17.6 18 Oeste 41 Sudoeste 0 -- -- 42
2019-06-14 11:00:00 16.1 18 Noroeste 31 Oeste 0 -- -- 46
2019-06-14 10:00:00 14.2 19 Oeste 28 Noroeste 0 -- -- 58
2019-06-14 09:00:00 12.7 18 Oeste 28 Oeste 0 -- -- 61
2019-06-14 08:00:00 10.1 9 Oeste 14 Oeste 0 -- -- 66
2019-06-14 07:00:00 6.1 2 Sudoeste 7 Sudoeste 0 -- -- 67
2019-06-14 06:00:00 7.5 6 Sudoeste 7 Sudoeste 0 -- -- 69
2019-06-14 05:00:00 9.7 5 Sudeste 12 Oeste 0 -- -- 68
2019-06-14 04:00:00 11.3 9 Oeste 15 Oeste 0 -- -- 63
2019-06-14 03:00:00 12.5 7 Oeste 19 Oeste 0 -- -- 57
2019-06-14 02:00:00 13.9 14 Noroeste 22 Noroeste 0 -- -- 56
2019-06-14 01:00:00 15.3 15 Noroeste 32 Noroeste 0 -- -- 52
2019-06-14 00:00:00 17.7 19 Noroeste 30 Noroeste 0 -- -- 43
2019-06-13 23:00:00 20 17 Noroeste 25 Noroeste 0 -- -- 32
2019-06-13 22:00:00 21.4 12 Oeste 28 Oeste 0 -- -- 27
2019-06-13 21:00:00 23.2 16 Oeste 36 Oeste 0 -- -- 24
2019-06-13 20:00:00 24.7 21 Oeste 37 Oeste 0 -- -- 23
2019-06-13 19:00:00 25.9 24 Oeste 40 Oeste 0 -- -- 22
2019-06-13 18:00:00 27.3 15 Sudoeste 27 Oeste 0 -- -- 24
2019-06-13 17:00:00 26.8 17 Noroeste 35 Noroeste 0 -- -- 25
2019-06-13 16:00:00 25.7 14 Noroeste 35 Oeste 0 -- -- 28
2019-06-13 15:00:00 25.5 12 Noroeste 29 Sudoeste 0 -- -- 27
2019-06-13 14:00:00 25.2 12 Sudoeste 32 Sudoeste 0 -- -- 26
2019-06-13 13:00:00 23.3 6 Sudoeste 20 Oeste 0 -- -- 22
2019-06-13 12:00:00 20.4 6 Norte 14 Noroeste 0 -- -- 32
2019-06-13 11:00:00 17.5 6 Norte 13 Noroeste 0 -- -- 39
2019-06-13 10:00:00 16.2 3 Noroeste 8 Sudoeste 0 -- -- 38
2019-06-13 09:00:00 13.2 5 Sudeste 10 Este 0 -- -- 50
2019-06-13 08:00:00 8.9 0 Calma 9 Sur 0 -- -- 61
2019-06-13 07:00:00 7.3 3 Sudoeste 10 Oeste 0 -- -- 66
2019-06-13 06:00:00 8.5 3 Sudoeste 8 Oeste 0 -- -- 60
2019-06-13 05:00:00 9.2 6 Oeste 8 Oeste 0 -- -- 59
2019-06-13 04:00:00 10.1 3 Sudoeste 11 Oeste 0 -- -- 56
2019-06-13 03:00:00 12.6 8 Oeste 19 Noroeste 0 -- -- 48
2019-06-13 02:00:00 14.7 11 Noroeste 27 Noroeste 0 -- -- 45
2019-06-13 01:00:00 16.3 16 Noroeste 32 Oeste 0 -- -- 44
2019-06-13 00:00:00 18.5 15 Noroeste 29 Noroeste 0 -- -- 36
2019-06-12 23:00:00 20.2 9 Noroeste 25 Noroeste 0 -- -- 23
2019-06-12 22:00:00 23.3 19 Noroeste 29 Noroeste 0 -- -- 18
2019-06-12 21:00:00 25.9 15 Noroeste 28 Noroeste 0 -- -- 16
2019-06-12 20:00:00 27.2 18 Noroeste 32 Oeste 0 -- -- 14
2019-06-12 19:00:00 27.8 5 Norte 42 Noroeste 0 -- -- 15
2019-06-12 18:00:00 28 10 Oeste 44 Oeste 0 -- -- 16
2019-06-12 17:00:00 28.1 15 Sudoeste 30 Oeste 0 -- -- 17
2019-06-12 16:00:00 27 11 Noroeste 28 Oeste 0 -- -- 18
2019-06-12 15:00:00 25.9 9 Norte 23 Noroeste 0 -- -- 18
2019-06-12 14:00:00 25 8 Oeste 20 Oeste 0 -- -- 19
2019-06-12 13:00:00 24 8 Oeste 15 Oeste 0 -- -- 21
2019-06-12 12:00:00 22.3 6 Norte 10 Norte 0 -- -- 25
2019-06-12 11:00:00 20.2 4 Nordeste 10 Noroeste 0 -- -- 28
2019-06-12 10:00:00 17.9 4 Noroeste 10 Oeste 0 -- -- 31
2019-06-12 09:00:00 15.3 5 Oeste 9 Oeste 0 -- -- 37
2019-06-12 08:00:00 9.5 0 Calma 6 Sudoeste 0 -- -- 46
2019-06-12 07:00:00 7.1 5 Sur 7 Sur 0 -- -- 46
2019-06-12 06:00:00 7.1 3 Sudoeste 7 Sur 0 -- -- 44
2019-06-12 05:00:00 7.2 2 Oeste 6 Oeste 0 -- -- 40
2019-06-12 04:00:00 6.9 4 Sur 6 Sur 0 -- -- 37
2019-06-12 03:00:00 7.7 4 Sudeste 5 Sudeste 0 -- -- 35
2019-06-12 02:00:00 8.9 4 Sur 5 Sur 0 -- -- 33
2019-06-12 01:00:00 11.3 3 Norte 5 Noroeste 0 -- -- 29
2019-06-12 00:00:00 15.2 3 Noroeste 8 Noroeste 0 -- -- 26
2019-06-11 23:00:00 18.3 6 Norte 17 Norte 0 -- -- 24
2019-06-11 22:00:00 21.1 13 Norte 29 Norte 0 -- -- 21
2019-06-11 21:00:00 23.3 17 Norte 34 Noroeste 0 -- -- 20
2019-06-11 20:00:00 24.1 20 Noroeste 38 Noroeste 0 -- -- 22
2019-06-11 19:00:00 24.9 20 Norte 33 Norte 0 -- -- 21
2019-06-11 18:00:00 24.9 21 Noroeste 42 Norte 0 -- -- 23
2019-06-11 17:00:00 24.5 22 Noroeste 39 Noroeste 0 -- -- 25
2019-06-11 16:00:00 24.1 22 Noroeste 40 Norte 0 -- -- 27
2019-06-11 15:00:00 23.8 19 Noroeste 42 Noroeste 0 -- -- 31
2019-06-11 14:00:00 22.9 21 Noroeste 37 Norte 0 -- -- 35
2019-06-11 13:00:00 21.6 23 Noroeste 37 Noroeste 0 -- -- 41
2019-06-11 12:00:00 19.5 21 Noroeste 33 Noroeste 0 -- -- 47
2019-06-11 11:00:00 17.5 17 Noroeste 28 Noroeste 0 -- -- 52
2019-06-11 10:00:00 15.4 15 Noroeste 25 Oeste 0 -- -- 57
2019-06-11 09:00:00 13.5 17 Noroeste 27 Noroeste 0 -- -- 63
2019-06-11 08:00:00 11.8 15 Oeste 25 Oeste 0 -- -- 69
2019-06-11 07:00:00 11 12 Oeste 25 Oeste 0 -- -- 68
2019-06-11 06:00:00 11.4 9 Oeste 20 Oeste 0 -- -- 64
2019-06-11 05:00:00 12 10 Oeste 17 Oeste 0 -- -- 60
2019-06-11 04:00:00 12.5 10 Oeste 20 Oeste 0 -- -- 58
2019-06-11 03:00:00 13.3 11 Oeste 25 Oeste 0 -- -- 55
2019-06-11 02:00:00 14.5 17 Oeste 37 Oeste 0 -- -- 50
2019-06-11 01:00:00 16.1 21 Oeste 35 Noroeste 0 -- -- 44
2019-06-11 00:00:00 17.7 22 Oeste 39 Oeste 0 -- -- 39
2019-06-10 23:00:00 20.1 23 Oeste 37 Oeste 0 -- -- 34
2019-06-10 22:00:00 22.4 21 Oeste 34 Oeste 0 -- -- 31
2019-06-10 21:00:00 24.5 22 Oeste 34 Oeste 0 -- -- 29
2019-06-10 20:00:00 25.8 21 Noroeste 38 Oeste 0 -- -- 24
2019-06-10 19:00:00 26.4 18 Noroeste 35 Noroeste 0 -- -- 24
2019-06-10 18:00:00 26.4 16 Noroeste 35 Noroeste 0 -- -- 23
2019-06-10 17:00:00 26.1 19 Noroeste 34 Oeste 0 -- -- 25
2019-06-10 16:00:00 25.2 16 Noroeste 33 Noroeste 0 -- -- 29
2019-06-10 15:00:00 24 17 Norte 32 Norte 0 -- -- 30
2019-06-10 14:00:00 23 16 Noroeste 31 Noroeste 0 -- -- 37
2019-06-10 13:00:00 21.7 13 Noroeste 30 Noroeste 0 -- -- 41
2019-06-10 12:00:00 20.2 13 Noroeste 32 Noroeste 0 -- -- 47
2019-06-10 11:00:00 18.5 12 Noroeste 24 Noroeste 0 -- -- 53
2019-06-10 10:00:00 16.3 11 Oeste 17 Oeste 0 -- -- 62
2019-06-10 09:00:00 14.5 12 Oeste 17 Oeste 0 -- -- 69
2019-06-10 08:00:00 12.4 7 Oeste 15 Oeste 0 -- -- 78
2019-06-10 07:00:00 11.7 9 Oeste 20 Oeste 0 -- -- 80
2019-06-10 06:00:00 11.9 10 Oeste 20 Oeste 0 -- -- 79
2019-06-10 05:00:00 12.5 13 Oeste 24 Oeste 0 -- -- 77
2019-06-10 04:00:00 13.6 15 Noroeste 26 Oeste 0 -- -- 70
2019-06-10 03:00:00 14.6 17 Noroeste 27 Noroeste 0 -- -- 64
2019-06-10 02:00:00 15.7 17 Noroeste 31 Noroeste 0 -- -- 57
2019-06-10 01:00:00 17.1 19 Noroeste 30 Oeste 0 -- -- 50
2019-06-10 00:00:00 18.2 15 Noroeste 33 Oeste 0 -- -- 46
2019-06-09 23:00:00 19.6 21 Noroeste 32 Noroeste 0 -- -- 41
2019-06-09 22:00:00 21 21 Noroeste 34 Noroeste 0 -- -- 37
2019-06-09 21:00:00 22.8 23 Noroeste 38 Oeste 0 -- -- 35
2019-06-09 20:00:00 24.4 19 Noroeste 37 Oeste 0 -- -- 30
2019-06-09 19:00:00 25.4 20 Noroeste 34 Oeste 0 -- -- 28
2019-06-09 18:00:00 26 19 Oeste 34 Oeste 0 -- -- 25
2019-06-09 17:00:00 25.6 21 Noroeste 34 Noroeste 0 -- -- 25
2019-06-09 16:00:00 24.7 19 Oeste 37 Noroeste 0 -- -- 28
2019-06-09 15:00:00 24 15 Noroeste 32 Noroeste 0 -- -- 28
2019-06-09 14:00:00 23 16 Noroeste 31 Oeste 0 -- -- 29
2019-06-09 13:00:00 21.5 13 Noroeste 28 Noroeste 0 -- -- 32
2019-06-09 12:00:00 19.9 13 Noroeste 24 Oeste 0 -- -- 32
2019-06-09 11:00:00 18.8 12 Oeste 26 Noroeste 0 -- -- 28
2019-06-09 10:00:00 16.5 8 Oeste 14 Oeste 0 -- -- 31
2019-06-09 09:00:00 13.8 4 Norte 7 Noroeste 0 -- -- 45
2019-06-09 08:00:00 9.1 0 Calma 4 Sudoeste 0 -- -- 60
2019-06-09 07:00:00 9.4 2 Norte 13 Noroeste 0 -- -- 58
2019-06-09 06:00:00 10.6 5 Sur 10 Sur 0 -- -- 59
2019-06-09 05:00:00 10.6 8 Sur 11 Sur 0 -- -- 54
2019-06-09 04:00:00 11.3 4 Sur 7 Sudoeste 0 -- -- 53
2019-06-09 03:00:00 14.2 6 Oeste 20 Oeste 0 -- -- 50
2019-06-09 02:00:00 15.5 9 Oeste 29 Oeste 0 -- -- 50
2019-06-09 01:00:00 17.3 18 Oeste 30 Noroeste 0 -- -- 47
2019-06-09 00:00:00 19.1 21 Noroeste 34 Noroeste 0 -- -- 43
2019-06-08 23:00:00 21.2 11 Noroeste 23 Noroeste 0 -- -- 30
2019-06-08 22:00:00 22.9 9 Noroeste 28 Noroeste 0 -- -- 26
2019-06-08 21:00:00 25.1 11 Noroeste 25 Noroeste 0 -- -- 21
2019-06-08 20:00:00 27.1 17 Noroeste 27 Oeste 0 -- -- 21
2019-06-08 19:00:00 28.3 11 Norte 32 Oeste 0 -- -- 20
2019-06-08 18:00:00 29.2 7 Sudoeste 43 Oeste 0 -- -- 19
2019-06-08 17:00:00 28.3 7 Oeste 28 Noroeste 0 -- -- 21
2019-06-08 16:00:00 27.6 10 Noroeste 33 Sudoeste 0 -- -- 22
2019-06-08 15:00:00 25.9 10 Este 22 Sur 0 -- -- 24
2019-06-08 14:00:00 24.6 9 Oeste 18 Sudoeste 0 -- -- 25
2019-06-08 13:00:00 23.1 6 Oeste 14 Noroeste 0 -- -- 29
2019-06-08 12:00:00 21.4 6 Norte 15 Norte 0 -- -- 32
2019-06-08 11:00:00 19.6 6 Norte 14 Noroeste 0 -- -- 39
2019-06-08 10:00:00 16.8 4 Norte 9 Noroeste 0 -- -- 45
2019-06-08 09:00:00 14.4 4 Noroeste 9 Oeste 0 -- -- 55
2019-06-08 08:00:00 9.9 0 Calma 5 Oeste 0 -- -- 67
2019-06-08 07:00:00 7.4 2 Sudoeste 6 Sudoeste 0 -- -- 72
2019-06-08 06:00:00 8.4 2 Oeste 8 Sudoeste 0 -- -- 70
2019-06-08 05:00:00 10.8 5 Oeste 15 Oeste 0 -- -- 60
2019-06-08 04:00:00 12.3 9 Oeste 15 Oeste 0 -- -- 58
2019-06-08 03:00:00 12.6 8 Oeste 17 Oeste 0 -- -- 53
2019-06-08 02:00:00 13.9 10 Oeste 17 Oeste 0 -- -- 48
2019-06-08 01:00:00 15 9 Oeste 17 Oeste 0 -- -- 42
2019-06-08 00:00:00 16.6 9 Noroeste 14 Noroeste 0 -- -- 37
2019-06-07 23:00:00 16.3 6 Noroeste 9 Noroeste 0 -- -- 36
2019-06-07 22:00:00 18.9 7 Noroeste 23 Noroeste 0 -- -- 32
2019-06-07 21:00:00 21.3 7 Norte 21 Norte 0 -- -- 29
2019-06-07 20:00:00 21.9 11 Norte 23 Noroeste 0 -- -- 28
2019-06-07 19:00:00 22.1 10 Noroeste 23 Noroeste 0 -- -- 26
2019-06-07 18:00:00 21.9 13 Noroeste 27 Oeste 0 -- -- 29
2019-06-07 17:00:00 21.5 12 Norte 26 Noroeste 0 -- -- 31
2019-06-07 16:00:00 21 14 Norte 26 Norte 0 -- -- 33
2019-06-07 15:00:00 19.5 10 Noroeste 32 Norte 0 -- -- 36
2019-06-07 14:00:00 18.7 13 Noroeste 27 Noroeste 0 -- -- 40
2019-06-07 13:00:00 17.8 17 Noroeste 33 Norte 0 -- -- 42
2019-06-07 12:00:00 16.5 16 Noroeste 39 Noroeste 0 -- -- 45
2019-06-07 11:00:00 14.8 15 Noroeste 26 Noroeste 0 -- -- 60
2019-06-07 10:00:00 12.9 14 Noroeste 27 Noroeste 0 -- -- 72
2019-06-07 09:00:00 11.8 15 Noroeste 27 Noroeste 0 -- -- 81
2019-06-07 08:00:00 10.7 12 Oeste 19 Oeste 0 -- -- 89
2019-06-07 07:00:00 9.8 10 Oeste 19 Noroeste 0 -- -- 92
2019-06-07 06:00:00 10.8 14 Noroeste 23 Oeste 0 -- -- 90
2019-06-07 05:00:00 11.5 15 Noroeste 23 Noroeste 0 -- -- 88
2019-06-07 04:00:00 11.4 11 Oeste 22 Noroeste 0 -- -- 92
2019-06-07 03:00:00 10.8 13 Noroeste 32 Noroeste 0 -- -- 94
2019-06-07 02:00:00 12.3 18 Noroeste 38 Oeste 0 -- -- 90
2019-06-07 01:00:00 16.7 20 Oeste 33 Oeste 0 -- -- 66
2019-06-07 00:00:00 17.1 13 Sudoeste 31 Sudoeste 0 -- -- 60
2019-06-06 23:00:00 17.9 18 Sudoeste 36 Sudoeste 0 -- -- 55
2019-06-06 22:00:00 18.9 20 Oeste 41 Sudoeste 0 -- -- 49
2019-06-06 21:00:00 21 26 Sudoeste 39 Sudoeste 0 -- -- 41
2019-06-06 20:00:00 22.5 28 Oeste 41 Sudoeste 0 -- -- 36
2019-06-06 19:00:00 23.5 23 Oeste 37 Sudoeste 0 -- -- 33
2019-06-06 18:00:00 23.9 22 Sudoeste 41 Oeste 0 -- -- 29
2019-06-06 17:00:00 24.1 21 Sudoeste 40 Sudoeste 0 -- -- 26
2019-06-06 16:00:00 23.8 21 Oeste 43 Sudoeste 0 -- -- 22
2019-06-06 15:00:00 22.6 17 Sudoeste 31 Sur 0 -- -- 24
2019-06-06 14:00:00 21 9 Oeste 23 Oeste 0 -- -- 31
2019-06-06 13:00:00 18.7 6 Sur 19 Oeste 0 -- -- 39
2019-06-06 12:00:00 16.9 8 Oeste 16 Oeste 0 -- -- 47
2019-06-06 11:00:00 15.2 7 Noroeste 19 Norte 0 -- -- 51
2019-06-06 10:00:00 14.1 5 Oeste 12 Oeste 0 -- -- 54
2019-06-06 09:00:00 12.1 6 Oeste 10 Oeste 0 -- -- 63
2019-06-06 08:00:00 9.6 3 Sudeste 11 Oeste 0 -- -- 70
2019-06-06 07:00:00 8.3 8 Oeste 12 Oeste 0 -- -- 72
2019-06-06 06:00:00 9.2 8 Oeste 16 Oeste 0 -- -- 67
2019-06-06 05:00:00 10.5 12 Oeste 18 Noroeste 0 -- -- 63
2019-06-06 04:00:00 11.1 10 Oeste 21 Oeste 0 -- -- 58
2019-06-06 03:00:00 12 12 Oeste 26 Noroeste 0 -- -- 55
2019-06-06 02:00:00 13.1 18 Noroeste 29 Noroeste 0 -- -- 51
2019-06-06 01:00:00 14.1 13 Noroeste 26 Noroeste 0 -- -- 46
2019-06-06 00:00:00 15.4 15 Noroeste 26 Noroeste 0 -- -- 44
2019-06-05 23:00:00 16.6 12 Noroeste 21 Noroeste 0 -- -- 38
2019-06-05 22:00:00 17.9 13 Noroeste 24 Noroeste 0 -- -- 35
2019-06-05 21:00:00 19.6 17 Noroeste 32 Oeste 0 -- -- 33
2019-06-05 20:00:00 20.8 19 Noroeste 34 Noroeste 0 -- -- 31
2019-06-05 19:00:00 21.3 20 Noroeste 39 Oeste 0 -- -- 32
2019-06-05 18:00:00 21.6 20 Oeste 39 Noroeste 0 -- -- 32
2019-06-05 17:00:00 21 21 Noroeste 36 Noroeste 0 -- -- 32
2019-06-05 16:00:00 20.6 22 Noroeste 35 Noroeste 0 -- -- 35
2019-06-05 15:00:00 18.8 22 Noroeste 46 Oeste 0 -- -- 37
2019-06-05 14:00:00 19.4 22 Noroeste 41 Noroeste 0 -- -- 39
2019-06-05 13:00:00 18.4 26 Noroeste 40 Noroeste 0 -- -- 43
2019-06-05 12:00:00 17 22 Noroeste 35 Noroeste 0 -- -- 47
2019-06-05 11:00:00 15.6 22 Noroeste 34 Noroeste 0 -- -- 54
2019-06-05 10:00:00 14 23 Noroeste 34 Noroeste 0 -- -- 65
2019-06-05 09:00:00 12.5 22 Noroeste 33 Oeste 0 -- -- 75
2019-06-05 08:00:00 11 19 Noroeste 32 Noroeste 0 -- -- 83
2019-06-05 07:00:00 10.4 18 Oeste 31 Oeste 0 -- -- 86
2019-06-05 06:00:00 10.9 17 Oeste 32 Oeste 0 -- -- 79
2019-06-05 05:00:00 11.3 21 Oeste 37 Oeste 0 -- -- 76
2019-06-05 04:00:00 11.9 21 Noroeste 40 Noroeste 0 -- -- 75
2019-06-05 03:00:00 12.5 24 Oeste 39 Oeste 0 -- -- 68
2019-06-05 02:00:00 13.2 22 Oeste 42 Noroeste 0 -- -- 63
2019-06-05 01:00:00 14.6 26 Noroeste 42 Noroeste 0 -- -- 55
2019-06-05 00:00:00 16 26 Noroeste 45 Oeste 0 -- -- 54
2019-06-04 23:00:00 18.2 22 Noroeste 33 Oeste 0 -- -- 57
2019-06-04 22:00:00 18.5 22 Oeste 36 Oeste 0 -- -- 62
2019-06-04 21:00:00 19.6 23 Noroeste 48 Noroeste 0 -- -- 56
2019-06-04 20:00:00 21.3 29 Noroeste 49 Noroeste 0 -- -- 56
2019-06-04 19:00:00 23.2 30 Noroeste 44 Noroeste 0 -- -- 51
2019-06-04 18:00:00 24.9 25 Oeste 42 Noroeste 0 -- -- 43
2019-06-04 17:00:00 24.7 21 Noroeste 35 Oeste 0 -- -- 45
2019-06-04 16:00:00 25.4 21 Noroeste 37 Oeste 0 -- -- 43
2019-06-04 15:00:00 25.3 13 Oeste 35 Oeste 0 -- -- 44
2019-06-04 14:00:00 23.8 18 Noroeste 33 Noroeste 0 -- -- 45
2019-06-04 13:00:00 22.5 15 Oeste 32 Noroeste 0 -- -- 48
2019-06-04 12:00:00 20.7 15 Noroeste 27 Noroeste 0 -- -- 52
2019-06-04 11:00:00 18.9 15 Oeste 24 Oeste 0 -- -- 62
2019-06-04 10:00:00 17.2 13 Oeste 24 Noroeste 0 -- -- 70
2019-06-04 09:00:00 15.6 16 Oeste 29 Oeste 0 -- -- 77
2019-06-04 08:00:00 15.6 14 Noroeste 24 Noroeste 0 -- -- 81
2019-06-04 07:00:00 15.8 13 Oeste 22 Oeste 0 -- -- 81
2019-06-04 06:00:00 15.9 7 Oeste 14 Oeste 0 -- -- 80
2019-06-04 05:00:00 16.7 6 Oeste 13 Oeste 0 -- -- 75
2019-06-04 04:00:00 18.1 9 Oeste 21 Oeste 0 -- -- 71
2019-06-04 03:00:00 19.2 12 Oeste 21 Noroeste 0 -- -- 68
2019-06-04 02:00:00 20.8 11 Noroeste 25 Noroeste 0 -- -- 62
2019-06-04 01:00:00 22.8 15 Oeste 24 Oeste 0 -- -- 53
2019-06-04 00:00:00 23.8 11 Oeste 26 Noroeste 0 -- -- 37
2019-06-03 23:00:00 25.5 13 Oeste 30 Oeste 0 -- -- 28
2019-06-03 22:00:00 27.7 19 Oeste 33 Oeste 0 -- -- 24
2019-06-03 21:00:00 30.2 20 Oeste 34 Oeste 0 -- -- 21
2019-06-03 20:00:00 32.3 20 Oeste 38 Oeste 0 -- -- 18
2019-06-03 19:00:00 33.5 22 Oeste 35 Sudoeste 0 -- -- 17
2019-06-03 18:00:00 34.1 17 Sudoeste 33 Sudoeste 0 -- -- 16
2019-06-03 17:00:00 34.2 19 Oeste 35 Sudoeste 0 -- -- 16
2019-06-03 16:00:00 33.8 17 Sudoeste 33 Sudoeste 0 -- -- 17
2019-06-03 15:00:00 33.4 15 Oeste 30 Oeste 0 -- -- 18
2019-06-03 14:00:00 31.9 13 Noroeste 25 Noroeste 0 -- -- 18
2019-06-03 13:00:00 30.8 6 Oeste 17 Oeste 0 -- -- 19
2019-06-03 12:00:00 28.4 5 Noroeste 12 Oeste 0 -- -- 22
2019-06-03 11:00:00 26.6 6 Noroeste 17 Norte 0 -- -- 25
2019-06-03 10:00:00 24.4 4 Oeste 7 Oeste 0 -- -- 31
2019-06-03 09:00:00 22 0 Calma 4 Este 0 -- -- 36
2019-06-03 08:00:00 15.9 5 Sur 6 Sur 0 -- -- 49
2019-06-03 07:00:00 14.9 4 Sur 8 Sur 0 -- -- 45
2019-06-03 06:00:00 15.7 5 Sur 8 Sudoeste 0 -- -- 46
2019-06-03 05:00:00 18.2 0 Calma 11 Noroeste 0 -- -- 38
2019-06-03 04:00:00 20.5 7 Oeste 15 Noroeste 0 -- -- 36
2019-06-03 03:00:00 21.7 10 Oeste 13 Oeste 0 -- -- 35
2019-06-03 02:00:00 23.4 8 Oeste 18 Oeste 0 -- -- 31
2019-06-03 01:00:00 24.3 9 Sudoeste 21 Oeste 0 -- -- 29
2019-06-03 00:00:00 26.5 10 Noroeste 20 Noroeste 0 -- -- 25
2019-06-02 23:00:00 27.6 11 Noroeste 30 Noroeste 0 -- -- 24
2019-06-02 22:00:00 29.4 20 Noroeste 39 Noroeste 0 -- -- 23
2019-06-02 21:00:00 32.3 12 Noroeste 24 Noroeste 0 -- -- 21
2019-06-02 20:00:00 33.8 18 Noroeste 27 Oeste 0 -- -- 21
2019-06-02 19:00:00 34.8 11 Oeste 28 Oeste 0 -- -- 19
2019-06-02 18:00:00 35.3 6 Oeste 22 Oeste 0 -- -- 18
2019-06-02 17:00:00 35 12 Norte 24 Noroeste 0 -- -- 19
2019-06-02 16:00:00 34.6 10 Noroeste 21 Noroeste 0 -- -- 19
2019-06-02 15:00:00 33.9 11 Noroeste 20 Norte 0 -- -- 21
2019-06-02 14:00:00 32.4 7 Noroeste 17 Norte 0 -- -- 24
2019-06-02 13:00:00 31.1 7 Norte 14 Noroeste 0 -- -- 26
2019-06-02 12:00:00 29.2 5 Norte 12 Sudoeste 0 -- -- 29
2019-06-02 11:00:00 28.4 4 Sur 10 Oeste 0 -- -- 29
2019-06-02 10:00:00 26.1 8 Sudoeste 17 Sudoeste 0 -- -- 33
2019-06-02 09:00:00 23 9 Sur 14 Sudoeste 0 -- -- 38
2019-06-02 08:00:00 19.4 10 Sur 14 Sur 0 -- -- 42
2019-06-02 07:00:00 17.7 7 Sur 14 Sur 0 -- -- 44
2019-06-02 06:00:00 18.1 8 Sudeste 20 Sur 0 -- -- 41
2019-06-02 05:00:00 19.4 13 Sur 20 Sudeste 0 -- -- 38
2019-06-02 04:00:00 19.5 11 Sudeste 15 Sudeste 0 -- -- 38
2019-06-02 03:00:00 19 4 Este 19 Norte 0 -- -- 37
2019-06-02 02:00:00 20.9 5 Sur 13 Sur 0 -- -- 34
2019-06-02 01:00:00 21.4 9 Sudoeste 15 Sur 0 -- -- 31
2019-06-02 00:00:00 23.7 10 Sur 16 Sudeste 0 -- -- 27
2019-06-01 23:00:00 22.7 3 Este 6 Sudeste 0 -- -- 24
2019-06-01 22:00:00 29.1 4 Norte 18 Nordeste 0 -- -- 20
2019-06-01 21:00:00 32.3 13 Norte 28 Norte 0 -- -- 18
2019-06-01 20:00:00 33.7 17 Norte 31 Nordeste 0 -- -- 18
2019-06-01 19:00:00 34.3 13 Norte 27 Nordeste 0 -- -- 18
2019-06-01 18:00:00 35 9 Sudeste 24 Este 0 -- -- 16
2019-06-01 17:00:00 34.5 6 Sudeste 27 Nordeste 0 -- -- 17
2019-06-01 16:00:00 33.7 12 Nordeste 23 Este 0 -- -- 18
2019-06-01 15:00:00 33.7 6 Sudeste 28 Sudeste 0 -- -- 19
2019-06-01 14:00:00 31.8 8 Nordeste 24 Nordeste 0 -- -- 22
2019-06-01 13:00:00 30.8 8 Nordeste 20 Este 0 -- -- 24
2019-06-01 12:00:00 29.7 9 Este 18 Nordeste 0 -- -- 25
2019-06-01 11:00:00 27.6 8 Sudeste 14 Sudeste 0 -- -- 28
2019-06-01 10:00:00 24.7 7 Sur 15 Este 0 -- -- 34
2019-06-01 09:00:00 21.4 9 Sudeste 18 Sudeste 0 -- -- 40
2019-06-01 08:00:00 17.4 4 Sudeste 13 Sudeste 0 -- -- 46
2019-06-01 07:00:00 16.4 10 Sudeste 15 Sudeste 0 -- -- 44
2019-06-01 06:00:00 17 10 Sudeste 17 Sudeste 0 -- -- 41
2019-06-01 05:00:00 17.9 11 Sudeste 15 Sudeste 0 -- -- 38
2019-06-01 04:00:00 17.2 5 Sudeste 17 Sudeste 0 -- -- 38
2019-06-01 03:00:00 19.9 9 Sur 13 Sur 0 -- -- 34
2019-06-01 02:00:00 22.2 9 Sudeste 22 Sur 0 -- -- 31
2019-06-01 01:00:00 23.9 12 Sur 22 Sur 0 -- -- 30
2019-06-01 00:00:00 25 15 Sur 24 Sur 0 -- -- 28
2019-05-31 23:00:00 22.9 2 Este 9 Norte 0 -- -- 24
2019-05-31 22:00:00 28.6 7 Norte 21 Nordeste 0 -- -- 22
2019-05-31 21:00:00 32.2 9 Nordeste 23 Este 0 -- -- 19
2019-05-31 20:00:00 33.2 10 Nordeste 37 Nordeste 0 -- -- 18
2019-05-31 19:00:00 33.5 10 Nordeste 30 Nordeste 0 -- -- 17
2019-05-31 18:00:00 34.1 11 Norte 28 Este 0 -- -- 17
2019-05-31 17:00:00 33.4 15 Nordeste 29 Este 0 -- -- 18
2019-05-31 16:00:00 33.2 13 Este 32 Sudeste 0 -- -- 18
2019-05-31 15:00:00 32.3 12 Este 30 Este 0 -- -- 21
2019-05-31 14:00:00 31.6 16 Este 37 Este 0 -- -- 22
2019-05-31 13:00:00 30.5 13 Este 32 Sudeste 0 -- -- 25
2019-05-31 12:00:00 28.1 12 Este 22 Este 0 -- -- 29
2019-05-31 11:00:00 25.8 12 Este 19 Este 0 -- -- 32
2019-05-31 10:00:00 23.9 10 Este 15 Este 0 -- -- 34
2019-05-31 09:00:00 20.8 8 Sudeste 15 Sudeste 0 -- -- 37
2019-05-31 08:00:00 16.2 12 Sudeste 15 Este 0 -- -- 47
2019-05-31 07:00:00 12.2 7 Sudeste 11 Sur 0 -- -- 50
2019-05-31 06:00:00 12.3 0 Calma 5 Sur 0 -- -- 51
2019-05-31 05:00:00 15.1 3 Nordeste 17 Sur 0 -- -- 45
2019-05-31 04:00:00 18.3 13 Sudeste 17 Sudeste 0 -- -- 42
2019-05-31 03:00:00 19 6 Sur 14 Sur 0 -- -- 45
2019-05-31 02:00:00 21.5 13 Sudeste 22 Sur 0 -- -- 40
2019-05-31 01:00:00 21.4 9 Sur 12 Sudeste 0 -- -- 39
2019-05-31 00:00:00 23 10 Sudeste 21 Sur 0 -- -- 30
2019-05-30 23:00:00 21.5 3 Este 8 Norte 0 -- -- 24
2019-05-30 22:00:00 28 5 Nordeste 17 Este 0 -- -- 19
2019-05-30 21:00:00 31.1 12 Nordeste 24 Nordeste 0 -- -- 17
2019-05-30 20:00:00 32.1 15 Nordeste 27 Nordeste 0 -- -- 16
2019-05-30 19:00:00 33 15 Este 30 Nordeste 0 -- -- 15
2019-05-30 18:00:00 32.8 12 Nordeste 31 Nordeste 0 -- -- 16
2019-05-30 17:00:00 32.4 15 Nordeste 30 Este 0 -- -- 17
2019-05-30 16:00:00 32.7 14 Este 27 Este 0 -- -- 16
2019-05-30 15:00:00 31.7 14 Este 28 Nordeste 0 -- -- 17
2019-05-30 14:00:00 30.6 13 Este 30 Este 0 -- -- 18
2019-05-30 13:00:00 29.2 14 Este 33 Este 0 -- -- 21
2019-05-30 12:00:00 27.9 14 Este 31 Norte 0 -- -- 24
2019-05-30 11:00:00 25.9 13 Nordeste 25 Nordeste 0 -- -- 26
2019-05-30 10:00:00 24.3 12 Nordeste 19 Este 0 -- -- 28
2019-05-30 09:00:00 22.1 13 Este 20 Este 0 -- -- 32
2019-05-30 08:00:00 17.9 5 Sudeste 15 Este 0 -- -- 40
2019-05-30 07:00:00 15.7 9 Este 13 Sudeste 0 -- -- 40
2019-05-30 06:00:00 14.3 8 Sudeste 12 Sudeste 0 -- -- 43
2019-05-30 05:00:00 14.2 8 Este 11 Este 0 -- -- 40
2019-05-30 04:00:00 16.7 6 Nordeste 12 Sudeste 0 -- -- 35
2019-05-30 03:00:00 16.6 10 Sudeste 12 Sudeste 0 -- -- 34
2019-05-30 02:00:00 17.3 7 Sudeste 14 Este 0 -- -- 32
2019-05-30 01:00:00 21.1 8 Sudeste 15 Este 0 -- -- 27
2019-05-30 00:00:00 21.1 10 Este 13 Nordeste 0 -- -- 27
2019-05-29 23:00:00 23.4 8 Este 12 Nordeste 0 -- -- 25
2019-05-29 22:00:00 26.1 6 Nordeste 16 Nordeste 0 -- -- 23
2019-05-29 21:00:00 29.3 12 Nordeste 28 Nordeste 0 -- -- 20
2019-05-29 20:00:00 30.1 16 Nordeste 28 Nordeste 0 -- -- 20
2019-05-29 19:00:00 30.5 17 Nordeste 32 Este 0 -- -- 20
2019-05-29 18:00:00 30.3 15 Este 49 Este 0 -- -- 20
2019-05-29 17:00:00 29.9 15 Nordeste 33 Este 0 -- -- 21
2019-05-29 16:00:00 29.1 16 Nordeste 35 Nordeste 0 -- -- 21
2019-05-29 15:00:00 28.3 20 Nordeste 37 Nordeste 0 -- -- 22
2019-05-29 14:00:00 28 17 Nordeste 35 Este 0 -- -- 23
2019-05-29 13:00:00 27.1 12 Este 28 Este 0 -- -- 24
2019-05-29 12:00:00 25.3 15 Este 31 Este 0 -- -- 26
2019-05-29 11:00:00 24 22 Este 33 Este 0 -- -- 27
2019-05-29 10:00:00 22.8 18 Nordeste 33 Este 0 -- -- 30
2019-05-29 09:00:00 21 11 Este 19 Sudeste 0 -- -- 34
2019-05-29 08:00:00 15.8 6 Este 11 Este 0 -- -- 43
2019-05-29 07:00:00 14.9 10 Sudeste 13 Este 0 -- -- 39
2019-05-29 06:00:00 17.7 8 Este 16 Este 0 -- -- 34
2019-05-29 05:00:00 18.1 12 Sudeste 22 Este 0 -- -- 34
2019-05-29 04:00:00 14.2 8 Este 10 Este 0 -- -- 40
2019-05-29 03:00:00 12.5 4 Nordeste 7 Nordeste 0 -- -- 38
2019-05-29 02:00:00 14 2 Sudoeste 4 Noroeste 0 -- -- 37
2019-05-29 01:00:00 15.9 3 Noroeste 7 Noroeste 0 -- -- 34
2019-05-29 00:00:00 19.2 4 Noroeste 10 Norte 0 -- -- 27
2019-05-28 23:00:00 22.1 5 Norte 10 Norte 0 -- -- 24
2019-05-28 22:00:00 25.6 8 Norte 23 Norte 0 -- -- 20
2019-05-28 21:00:00 28.9 16 Norte 32 Norte 0 -- -- 17
2019-05-28 20:00:00 30.3 20 Norte 32 Norte 0 -- -- 16
2019-05-28 19:00:00 31.5 18 Norte 31 Norte 0 -- -- 22
2019-05-28 18:00:00 32.1 14 Norte 28 Norte 0 -- -- 24
2019-05-28 17:00:00 31.6 10 Noroeste 32 Norte 0 -- -- 26
2019-05-28 16:00:00 31 16 Norte 38 Norte 0 -- -- 25
2019-05-28 15:00:00 30.1 14 Norte 33 Norte 0 -- -- 30
2019-05-28 14:00:00 29.2 15 Norte 30 Norte 0 -- -- 33
2019-05-28 13:00:00 27.3 14 Norte 22 Norte 0 -- -- 37
2019-05-28 12:00:00 25.4 9 Noroeste 18 Noroeste 0 -- -- 43
2019-05-28 11:00:00 23.2 5 Norte 15 Nordeste 0 -- -- 47
2019-05-28 10:00:00 20.7 8 Noroeste 15 Oeste 0 -- -- 57
2019-05-28 09:00:00 19.1 11 Noroeste 16 Noroeste 0 -- -- 63
2019-05-28 08:00:00 16.7 6 Oeste 9 Noroeste 0 -- -- 73
2019-05-28 07:00:00 15.7 9 Oeste 12 Oeste 0 -- -- 77
2019-05-28 06:00:00 16.6 5 Oeste 18 Oeste 0 -- -- 73
2019-05-28 05:00:00 15.9 4 Oeste 8 Oeste 0 -- -- 74
2019-05-28 04:00:00 17.4 4 Oeste 16 Oeste 0 -- -- 70
2019-05-28 03:00:00 18.3 8 Oeste 21 Oeste 0 -- -- 67
2019-05-28 02:00:00 19 12 Oeste 19 Oeste 0 -- -- 65
2019-05-28 01:00:00 20.4 12 Oeste 32 Oeste 0 -- -- 59
2019-05-28 00:00:00 21.8 20 Oeste 33 Oeste 0 -- -- 56
2019-05-27 23:00:00 23.9 21 Oeste 32 Noroeste 0 -- -- 45
2019-05-27 22:00:00 26.1 18 Noroeste 36 Noroeste 0 -- -- 36
2019-05-27 21:00:00 28.4 22 Noroeste 38 Noroeste 0 -- -- 31
2019-05-27 20:00:00 30.4 24 Noroeste 38 Oeste 0 -- -- 30
2019-05-27 19:00:00 31.8 22 Noroeste 37 Noroeste 0 -- -- 27
2019-05-27 18:00:00 31.9 17 Noroeste 40 Noroeste 0 -- -- 26
2019-05-27 17:00:00 32.2 18 Noroeste 35 Oeste 0 -- -- 24
2019-05-27 16:00:00 31.9 18 Noroeste 37 Noroeste 0 -- -- 23
2019-05-27 15:00:00 31 17 Noroeste 36 Noroeste 0 -- -- 23
2019-05-27 14:00:00 30.4 20 Noroeste 35 Noroeste 0 -- -- 26
2019-05-27 13:00:00 29.2 13 Noroeste 22 Noroeste 0 -- -- 30
2019-05-27 12:00:00 27.6 9 Noroeste 19 Noroeste 0 -- -- 33
2019-05-27 11:00:00 25.6 8 Noroeste 13 Noroeste 0 -- -- 38
2019-05-27 10:00:00 22.9 8 Oeste 20 Noroeste 0 -- -- 46
2019-05-27 09:00:00 21 13 Noroeste 22 Noroeste 0 -- -- 52
2019-05-27 08:00:00 13.5 3 Sudoeste 6 Sudoeste 0 -- -- 60
2019-05-27 07:00:00 12 4 Sur 6 Sur 0 -- -- 58
2019-05-27 06:00:00 12.2 3 Sudoeste 5 Oeste 0 -- -- 51
2019-05-27 05:00:00 13.7 4 Sur 8 Sudoeste 0 -- -- 48
2019-05-27 04:00:00 14.8 3 Sur 7 Oeste 0 -- -- 45
2019-05-27 03:00:00 13.8 3 Sudoeste 6 Sudoeste 0 -- -- 44
2019-05-27 02:00:00 14.7 4 Sur 6 Sur 0 -- -- 38
2019-05-27 01:00:00 15.9 4 Sur 5 Sur 0 -- -- 37
2019-05-27 00:00:00 17.8 0 Calma 5 Norte 0 -- -- 35
2019-05-26 23:00:00 22.3 4 Norte 8 Norte 0 -- -- 30
2019-05-26 22:00:00 25.9 7 Norte 22 Noroeste 0 -- -- 27
2019-05-26 21:00:00 29 12 Norte 26 Nordeste 0 -- -- 25
2019-05-26 20:00:00 29.8 14 Nordeste 30 Norte 0 -- -- 24
2019-05-26 19:00:00 30.3 18 Norte 38 Norte 0 -- -- 23
2019-05-26 18:00:00 30.5 17 Norte 30 Norte 0 -- -- 23
2019-05-26 17:00:00 29.6 17 Norte 27 Norte 0 -- -- 24
2019-05-26 16:00:00 29.2 12 Nordeste 27 Nordeste 0 -- -- 25
2019-05-26 15:00:00 27.6 14 Nordeste 34 Norte 0 -- -- 26
2019-05-26 14:00:00 26.7 15 Norte 26 Nordeste 0 -- -- 28
2019-05-26 13:00:00 26 15 Norte 27 Norte 0 -- -- 29
2019-05-26 12:00:00 24.9 11 Norte 25 Nordeste 0 -- -- 29
2019-05-26 11:00:00 23.7 10 Nordeste 18 Nordeste 0 -- -- 33
2019-05-26 10:00:00 21.5 8 Norte 13 Norte 0 -- -- 36
2019-05-26 09:00:00 18.6 3 Noroeste 6 Oeste 0 -- -- 42
2019-05-26 08:00:00 11.7 3 Sur 5 Sur 0 -- -- 55
2019-05-26 07:00:00 8.2 2 Norte 5 Norte 0 -- -- 55
2019-05-26 06:00:00 9.6 2 Sudeste 5 Sur 0 -- -- 51
2019-05-26 05:00:00 10.2 4 Sur 6 Sur 0 -- -- 53
2019-05-26 04:00:00 10.7 4 Sur 5 Sur 0 -- -- 47
2019-05-26 03:00:00 11.4 0 Calma 5 Sur 0 -- -- 42
2019-05-26 02:00:00 12.7 4 Sur 5 Sur 0 -- -- 42
2019-05-26 01:00:00 14.2 2 Norte 6 Norte 0 -- -- 38
2019-05-26 00:00:00 16 2 Norte 8 Norte 0 -- -- 34
2019-05-25 23:00:00 18.6 6 Norte 10 Norte 0 -- -- 33
2019-05-25 22:00:00 23.5 5 Nordeste 15 Nordeste 0 -- -- 28
2019-05-25 21:00:00 26.2 11 Nordeste 26 Norte 0 -- -- 25
2019-05-25 20:00:00 27 7 Norte 25 Norte 0 -- -- 24
2019-05-25 19:00:00 27.3 11 Norte 28 Nordeste 0 -- -- 24
2019-05-25 18:00:00 27.1 13 Norte 29 Norte 0 -- -- 23
2019-05-25 17:00:00 26.4 14 Norte 33 Norte 0 -- -- 25
2019-05-25 16:00:00 25.6 13 Nordeste 39 Nordeste 0 -- -- 27
2019-05-25 15:00:00 25.3 14 Nordeste 34 Norte 0 -- -- 29
2019-05-25 14:00:00 24.2 14 Nordeste 31 Nordeste 0 -- -- 30
2019-05-25 13:00:00 23 20 Nordeste 33 Nordeste 0 -- -- 32
2019-05-25 12:00:00 22.2 14 Nordeste 32 Nordeste 0 -- -- 35
2019-05-25 11:00:00 21.3 16 Nordeste 35 Este 0 -- -- 37
2019-05-25 10:00:00 19.8 14 Nordeste 27 Nordeste 0 -- -- 43
2019-05-25 09:00:00 18.7 17 Este 24 Este 0 -- -- 46
2019-05-25 08:00:00 15.6 7 Nordeste 13 Nordeste 0 -- -- 52
2019-05-25 07:00:00 14.3 3 Nordeste 11 Nordeste 0 -- -- 51
2019-05-25 06:00:00 15.2 8 Nordeste 12 Nordeste 0 -- -- 47
2019-05-25 05:00:00 16.5 4 Nordeste 14 Nordeste 0 -- -- 44
2019-05-25 04:00:00 17.2 10 Nordeste 14 Nordeste 0 -- -- 41
2019-05-25 03:00:00 13.8 7 Nordeste 11 Nordeste 0 -- -- 46
2019-05-25 02:00:00 13.1 0 Calma 6 Norte 0 -- -- 43
2019-05-25 01:00:00 16.5 0 Calma 11 Noroeste 0 -- -- 36
2019-05-25 00:00:00 20.5 7 Noroeste 23 Norte 0 -- -- 31
2019-05-24 23:00:00 22.3 12 Norte 21 Norte 0 -- -- 29
2019-05-24 22:00:00 23.6 13 Noroeste 34 Norte 0 -- -- 30
2019-05-24 21:00:00 25.3 18 Noroeste 33 Noroeste 0 -- -- 29
2019-05-24 20:00:00 27 22 Noroeste 33 Norte 0 -- -- 27
2019-05-24 19:00:00 27.8 7 Norte 35 Norte 0 -- -- 30
2019-05-24 18:00:00 28 13 Nordeste 27 Nordeste 0 -- -- 30
2019-05-24 17:00:00 27.8 18 Norte 36 Nordeste 0 -- -- 28
2019-05-24 16:00:00 27.5 13 Norte 34 Norte 0 -- -- 33
2019-05-24 15:00:00 25.8 15 Norte 29 Noroeste 0 -- -- 35
2019-05-24 14:00:00 24.4 14 Noroeste 35 Noroeste 0 -- -- 37
2019-05-24 13:00:00 22.3 17 Norte 32 Norte 0 -- -- 39
2019-05-24 12:00:00 20.5 15 Noroeste 28 Noroeste 0 -- -- 44
2019-05-24 11:00:00 18.1 19 Noroeste 29 Oeste 0 -- -- 51
2019-05-24 10:00:00 16.3 17 Noroeste 28 Oeste 0 -- -- 57
2019-05-24 09:00:00 14.7 19 Oeste 28 Oeste 0 -- -- 64
2019-05-24 08:00:00 12.7 16 Oeste 24 Oeste 0 -- -- 70
2019-05-24 07:00:00 12.1 10 Oeste 20 Oeste 0 -- -- 73
2019-05-24 06:00:00 12.2 8 Oeste 21 Noroeste 0 -- -- 74
2019-05-24 05:00:00 12.4 9 Oeste 21 Oeste 0 -- -- 74
2019-05-24 04:00:00 13.2 12 Oeste 27 Oeste 0 -- -- 72
2019-05-24 03:00:00 14.7 17 Oeste 24 Oeste 0 -- -- 73
2019-05-24 02:00:00 15.7 13 Oeste 27 Oeste 0 -- -- 75
2019-05-24 01:00:00 17 17 Noroeste 35 Noroeste 0 -- -- 70
2019-05-24 00:00:00 18.8 22 Noroeste 40 Noroeste 0 -- -- 62
2019-05-23 23:00:00 20.5 19 Noroeste 39 Noroeste 0 -- -- 55
2019-05-23 22:00:00 22 22 Noroeste 32 Noroeste 0 -- -- 40
2019-05-23 21:00:00 23.5 22 Noroeste 36 Noroeste 0 -- -- 33
2019-05-23 20:00:00 25.1 22 Noroeste 39 Oeste 0 -- -- 28
2019-05-23 19:00:00 26.5 21 Noroeste 36 Noroeste 0 -- -- 27
2019-05-23 18:00:00 27.8 22 Oeste 39 Oeste 0 -- -- 23
2019-05-23 17:00:00 29.4 21 Oeste 35 Oeste 0 -- -- 23
2019-05-23 16:00:00 29.2 19 Oeste 38 Oeste 0 -- -- 26
2019-05-23 15:00:00 28.6 10 Oeste 32 Noroeste 0 -- -- 30
2019-05-23 14:00:00 28 17 Noroeste 33 Oeste 0 -- -- 32
2019-05-23 13:00:00 26.7 12 Oeste 21 Noroeste 0 -- -- 35
2019-05-23 12:00:00 25 9 Oeste 18 Noroeste 0 -- -- 36
2019-05-23 11:00:00 24.2 6 Noroeste 14 Noroeste 0 -- -- 37
2019-05-23 10:00:00 21.7 5 Sur 10 Sur 0 -- -- 46
2019-05-23 09:00:00 18.3 4 Sudeste 6 Sudeste 0 -- -- 59
2019-05-23 08:00:00 12.7 0 Calma 5 Sur 0 -- -- 72
2019-05-23 07:00:00 11.7 3 Sudeste 5 Sur 0 -- -- 72
2019-05-23 06:00:00 13.3 -- -- -- -- 0 -- -- 67
2019-05-23 05:00:00 16.3 10 Oeste 16 Oeste 0 -- -- 62
2019-05-23 04:00:00 16.4 9 Oeste 12 Oeste 0 -- -- 62
2019-05-23 03:00:00 17.4 6 Oeste 13 Oeste 0 -- -- 66
2019-05-23 02:00:00 18.8 9 Oeste 24 Oeste 0 -- -- 63
2019-05-23 01:00:00 20.1 15 Oeste 27 Sudoeste 0 -- -- 58
2019-05-23 00:00:00 20.6 10 Oeste 19 Noroeste 0 -- -- 41
2019-05-22 23:00:00 21.2 5 Oeste 10 Oeste 0 -- -- 39
2019-05-22 22:00:00 24.6 6 Noroeste 15 Noroeste 0 -- -- 35
2019-05-22 21:00:00 26.8 7 Noroeste 22 Noroeste 0 -- -- 31
2019-05-22 20:00:00 28.7 11 Norte 18 Noroeste 0 -- -- 28
2019-05-22 19:00:00 27.9 7 Noroeste 24 Oeste 0 -- -- 27
2019-05-22 18:00:00 30.3 5 Sudeste 44 Sudoeste 0 -- -- 25
2019-05-22 17:00:00 29.9 10 Sur 18 Oeste 0 -- -- 25
2019-05-22 16:00:00 29.2 9 Oeste 20 Sudoeste 0 -- -- 27
2019-05-22 15:00:00 28 10 Sudoeste 23 Sudoeste 0 -- -- 30
2019-05-22 14:00:00 26.4 6 Norte 16 Norte 0 -- -- 32
2019-05-22 13:00:00 24.8 5 Este 17 Sudoeste 0 -- -- 36
2019-05-22 12:00:00 24.7 6 Este 17 Sudeste 0 -- -- 40
2019-05-22 11:00:00 22.5 4 Norte 9 Norte 0 -- -- 50
2019-05-22 10:00:00 20.3 2 Sudeste 5 Este 0 -- -- 60
2019-05-22 09:00:00 17 2 Sur 5 Sur 0 -- -- 70
2019-05-22 08:00:00 11 4 Sur 5 Sudeste 0 -- -- 81
2019-05-22 07:00:00 9.5 4 Sur 5 Sur 0 -- -- 82
2019-05-22 06:00:00 10.1 4 Sur 5 Sudoeste 0 -- -- 80
2019-05-22 05:00:00 11.3 3 Sur 5 Sur 0 -- -- 77
2019-05-22 04:00:00 13.2 2 Sudoeste 9 Oeste 0 -- -- 76
2019-05-22 03:00:00 15.8 9 Oeste 15 Oeste 0 -- -- 68
2019-05-22 02:00:00 16.9 10 Oeste 25 Oeste 0 -- -- 63
2019-05-22 01:00:00 14.3 6 Oeste 9 Oeste 0 -- -- 58
2019-05-22 00:00:00 16.3 6 Oeste 10 Oeste 0 -- -- 51
2019-05-21 23:00:00 19.2 6 Oeste 13 Oeste 0 -- -- 45
2019-05-21 22:00:00 21.5 9 Noroeste 17 Noroeste 0 -- -- 41
2019-05-21 21:00:00 23.6 11 Noroeste 20 Noroeste 0 -- -- 34
2019-05-21 20:00:00 23.9 14 Noroeste 24 Noroeste 0 -- -- 34
2019-05-21 19:00:00 24 12 Oeste 22 Noroeste 0 -- -- 34
2019-05-21 18:00:00 24.6 11 Noroeste 23 Noroeste 0 -- -- 32
2019-05-21 17:00:00 24.6 9 Oeste 27 Oeste 0 -- -- 33
2019-05-21 16:00:00 24.6 12 Noroeste 34 Noroeste 0 -- -- 35
2019-05-21 15:00:00 23.9 14 Noroeste 32 Noroeste 0 -- -- 36
2019-05-21 14:00:00 22.9 11 Noroeste 27 Noroeste 0 -- -- 39
2019-05-21 13:00:00 21.6 12 Noroeste 24 Noroeste 0 -- -- 41
2019-05-21 12:00:00 19.7 11 Sudoeste 17 Oeste 0 -- -- 46
2019-05-21 11:00:00 17.8 9 Noroeste 15 Noroeste 0 -- -- 53
2019-05-21 10:00:00 15.5 8 Noroeste 16 Noroeste 0 -- -- 61
2019-05-21 09:00:00 13.4 8 Oeste 12 Oeste 0 -- -- 72
2019-05-21 08:00:00 10.2 3 Oeste 6 Oeste 0 -- -- 79
2019-05-21 07:00:00 10.3 4 Oeste 14 Oeste 0 -- -- 75
2019-05-21 06:00:00 11.6 8 Oeste 17 Oeste 0 -- -- 75
2019-05-21 05:00:00 12.1 9 Oeste 21 Oeste 0 -- -- 72
2019-05-21 04:00:00 13.2 12 Oeste 24 Oeste 0 -- -- 66
2019-05-21 03:00:00 14 18 Noroeste 26 Oeste 0 -- -- 61
2019-05-21 02:00:00 15 16 Oeste 26 Oeste 0 -- -- 56
2019-05-21 01:00:00 16.4 16 Oeste 25 Oeste 0 -- -- 49
2019-05-21 00:00:00 17.7 15 Noroeste 23 Noroeste 0 -- -- 44